Terminal Aerodrome Forecast
Issued by NWS

Home | Current Version | Previous Version | Graphics & Text | Print | Product List | Glossary On
Versions: 1 2 3 4 5 6 7 8 9 10 11 12 13 14 15 16 17 18 19 20 21 22 23 24 25 26 27 28 29 30 31 32 33 34
000
FTUS43 KLOT 031400 AAA
TAFORD
TAF AMD
KORD 031404Z 0314/0418 15013KT 2SM -FZRASN BR SCT007 OVC015
      TEMPO 0314/0315 1SM -FZDZ BR VV007
     FM031500 18014G20KT 1SM -FZRAPL BR BKN006 OVC015
     FM031700 19014G22KT 4SM -FZDZ BR OVC008
     FM032100 26014G22KT P6SM OVC015
     FM040200 29013G20KT P6SM OVC025
     FM041200 31010G16KT P6SM SCT025 BKN150=

USA.gov is the U.S. government's official web portal to all federal, state and local government web resources and services.